createdAt,value
2019-06-07T00:00:38.662Z,62.29
2019-06-07T00:02:47.992Z,62.62
2019-06-07T00:05:21.384Z,62.69
2019-06-07T00:07:53.861Z,61.77
2019-06-07T00:10:35.809Z,61.54
2019-06-07T00:13:01.439Z,60.52
2019-06-07T00:15:33.696Z,59.77
2019-06-07T00:18:10.260Z,59.09
2019-06-07T00:20:40.329Z,58.87
2019-06-07T00:23:15.749Z,58.93
2019-06-07T00:25:46.958Z,59.00
2019-06-07T00:28:20.381Z,59.37
2019-06-07T00:30:52.947Z,59.61
2019-06-07T00:33:25.674Z,59.46
2019-06-07T00:35:58.104Z,58.90
2019-06-07T00:38:30.555Z,59.03
2019-06-07T00:41:02.700Z,59.47
2019-06-07T00:43:35.228Z,60.13
2019-06-07T00:46:07.516Z,60.88
2019-06-07T00:48:39.847Z,61.62
2019-06-07T00:51:14.066Z,62.33
2019-06-07T00:53:46.341Z,62.60
2019-06-07T00:56:20.645Z,62.21
2019-06-07T00:59:10.450Z,61.70
2019-06-07T01:01:27.793Z,61.33
2019-06-07T01:04:00.291Z,61.99
2019-06-07T01:06:32.814Z,62.26
2019-06-07T01:09:08.028Z,62.99
2019-06-07T01:11:40.258Z,62.82
2019-06-07T01:14:14.593Z,62.56
2019-06-07T01:16:57.042Z,62.39
2019-06-07T01:19:24.409Z,62.34
2019-06-07T01:21:56.499Z,63.31
2019-06-07T01:24:29.041Z,67.10
2019-06-07T01:27:01.302Z,68.22
2019-06-07T01:29:33.563Z,68.20
2019-06-07T01:32:06.114Z,68.26
2019-06-07T01:34:38.597Z,67.82
2019-06-07T01:37:11.209Z,68.29
2019-06-07T01:39:43.478Z,68.39
2019-06-07T01:42:18.074Z,68.42
2019-06-07T01:44:49.076Z,68.75
2019-06-07T01:47:25.553Z,68.10
2019-06-07T01:49:55.748Z,68.06
2019-06-07T01:52:29.573Z,68.28
2019-06-07T01:55:01.865Z,68.68
2019-06-07T01:57:47.468Z,68.87
2019-06-07T02:00:09.843Z,69.12
2019-06-07T02:02:41.987Z,69.27
2019-06-07T02:05:15.156Z,69.21
2019-06-07T02:07:48.355Z,69.51
2019-06-07T02:10:24.612Z,69.75
2019-06-07T02:12:55.701Z,69.43
2019-06-07T02:15:36.141Z,69.23
2019-06-07T02:18:03.428Z,69.55
2019-06-07T02:20:35.991Z,68.95
2019-06-07T02:23:08.462Z,68.20
2019-06-07T02:25:49.577Z,68.29
2019-06-07T02:28:29.997Z,68.16
2019-06-07T02:30:59.504Z,67.68
2019-06-07T02:33:27.904Z,67.86
2019-06-07T02:35:56.655Z,67.53
2019-06-07T02:38:37.290Z,67.92
2019-06-07T02:41:07.939Z,67.37
2019-06-07T02:43:40.444Z,66.29
2019-06-07T02:46:31.895Z,66.34
2019-06-07T02:48:57.816Z,66.24
2019-06-07T02:51:35.808Z,65.46
2019-06-07T02:54:04.751Z,64.87
2019-06-07T02:56:52.490Z,64.94
2019-06-07T02:59:11.087Z,64.50
2019-06-07T03:01:43.691Z,64.36
2019-06-07T03:04:17.041Z,64.06
2019-06-07T03:06:53.031Z,63.46
2019-06-07T03:09:26.513Z,63.21
2019-06-07T03:12:03.111Z,62.59
2019-06-07T03:14:36.221Z,62.73
2019-06-07T03:17:10.215Z,62.19
2019-06-07T03:19:47.820Z,61.90
2019-06-07T03:22:19.706Z,61.82
2019-06-07T03:24:54.169Z,61.85
2019-06-07T03:27:41.535Z,61.23
2019-06-07T03:29:59.599Z,60.82
2019-06-07T03:32:36.860Z,60.15
2019-06-07T03:35:06.870Z,60.25
2019-06-07T03:37:42.237Z,58.00
2019-06-07T03:40:17.872Z,57.96
2019-06-07T03:42:51.563Z,59.36
2019-06-07T03:45:23.886Z,59.55
2019-06-07T03:47:56.483Z,59.58
2019-06-07T03:50:31.959Z,59.45
2019-06-07T03:53:02.773Z,58.94
2019-06-07T03:55:39.070Z,58.45
2019-06-07T04:00:43.659Z,58.57
2019-06-07T04:03:32.789Z,57.86
2019-06-07T04:05:50.969Z,56.34
2019-06-07T04:08:23.531Z,56.42
2019-06-07T04:11:00.047Z,56.35
2019-06-07T04:13:34.842Z,55.30
2019-06-07T04:16:07.441Z,56.38
2019-06-07T04:18:40.760Z,55.74
2019-06-07T04:21:13.768Z,55.75
2019-06-07T04:23:46.069Z,54.04
2019-06-07T04:26:18.611Z,54.71
2019-06-07T04:29:31.673Z,54.78
2019-06-07T04:31:25.475Z,54.04
2019-06-07T04:33:58.141Z,54.61
2019-06-07T04:36:45.937Z,52.95
2019-06-07T04:39:07.745Z,53.52
2019-06-07T04:41:41.393Z,52.91
2019-06-07T04:44:15.827Z,52.77
2019-06-07T04:46:51.004Z,52.87
2019-06-07T04:49:25.574Z,51.78
2019-06-07T04:51:57.801Z,50.56
2019-06-07T04:54:31.494Z,50.15
2019-06-07T04:57:05.263Z,48.96
2019-06-07T05:02:12.714Z,48.57
2019-06-07T05:04:46.706Z,48.41
2019-06-07T05:07:19.008Z,47.78
2019-06-07T05:09:51.177Z,47.69
2019-06-07T05:12:24.590Z,47.64
2019-06-07T05:14:57.116Z,47.04
2019-06-07T05:17:31.730Z,46.59
2019-06-07T05:20:05.040Z,46.83
2019-06-07T05:22:40.866Z,45.70
2019-06-07T05:25:11.667Z,45.32
2019-06-07T05:27:46.836Z,45.11
2019-06-07T05:31:02.996Z,46.05
2019-06-07T05:33:12.820Z,44.83
2019-06-07T05:35:45.015Z,44.81
2019-06-07T05:38:17.359Z,45.13
2019-06-07T05:40:49.836Z,44.00
2019-06-07T05:43:25.324Z,42.33
2019-06-07T05:45:57.546Z,42.95
2019-06-07T05:48:29.781Z,42.60
2019-06-07T05:51:02.487Z,41.21
2019-06-07T05:53:39.968Z,41.54
2019-06-07T05:56:09.970Z,41.71
2019-06-07T05:58:44.737Z,41.87
2019-06-07T06:03:51.596Z,40.72
2019-06-07T06:06:24.019Z,40.79
2019-06-07T06:09:12.911Z,41.52
2019-06-07T06:11:47.037Z,41.54
2019-06-07T06:14:08.463Z,41.19
2019-06-07T06:16:44.491Z,41.15
2019-06-07T06:19:15.770Z,40.67
2019-06-07T06:21:48.740Z,40.93
2019-06-07T06:24:22.739Z,41.67
2019-06-07T06:27:12.106Z,41.36
2019-06-07T06:29:30.379Z,41.55
2019-06-07T06:32:40.650Z,41.75
2019-06-07T06:34:43.240Z,41.16
2019-06-07T06:37:13.117Z,41.43
2019-06-07T06:39:49.537Z,41.68
2019-06-07T06:42:19.471Z,42.20
2019-06-07T06:44:54.225Z,42.71
2019-06-07T06:47:26.539Z,42.94
2019-06-07T06:49:58.675Z,43.16
2019-06-07T06:52:31.079Z,42.30
2019-06-07T06:55:11.507Z,42.26
2019-06-07T06:57:45.879Z,41.22
2019-06-07T07:00:19.758Z,40.95
2019-06-07T07:03:41.932Z,41.34
2019-06-07T07:05:28.016Z,41.25
2019-06-07T07:08:01.338Z,42.02
2019-06-07T07:10:43.081Z,40.86
2019-06-07T07:13:16.039Z,40.78
2019-06-07T07:15:55.110Z,41.18
2019-06-07T07:18:25.183Z,41.15
2019-06-07T07:20:57.744Z,40.15
2019-06-07T07:23:30.126Z,41.21
2019-06-07T07:26:03.269Z,39.90
2019-06-07T07:28:35.427Z,39.55
2019-06-07T07:31:09.528Z,37.63
2019-06-07T07:34:23.824Z,37.56
2019-06-07T07:36:37.393Z,36.96
2019-06-07T07:39:00.736Z,37.32
2019-06-07T07:41:27.062Z,37.33
2019-06-07T07:44:07.076Z,37.75
2019-06-07T07:46:35.587Z,38.23
2019-06-07T07:49:08.017Z,39.03
2019-06-07T07:51:41.064Z,40.48
2019-06-07T07:54:13.649Z,39.98
2019-06-07T07:56:47.123Z,40.21
2019-06-07T07:59:41.244Z,40.00
2019-06-07T08:01:58.734Z,40.04
2019-06-07T08:05:12.938Z,40.15
2019-06-07T08:07:04.837Z,39.75
2019-06-07T08:09:37.245Z,40.16
2019-06-07T08:12:09.593Z,38.96
2019-06-07T08:14:43.749Z,38.46
2019-06-07T08:17:17.123Z,37.53
2019-06-07T08:19:52.202Z,37.82
2019-06-07T08:22:24.044Z,37.95
2019-06-07T08:24:59.826Z,37.46
2019-06-07T08:27:30.508Z,36.82
2019-06-07T08:30:46.478Z,38.00
2019-06-07T08:32:45.444Z,38.93
2019-06-07T08:36:02.607Z,37.54
2019-06-07T08:38:22.062Z,36.95
2019-06-07T08:40:28.524Z,37.48
2019-06-07T08:43:18.426Z,37.78
2019-06-07T08:45:38.175Z,37.22
2019-06-07T08:48:27.153Z,38.64
2019-06-07T08:50:43.669Z,37.57
2019-06-07T08:53:18.299Z,38.24
2019-06-07T08:55:54.228Z,39.27
2019-06-07T08:58:24.767Z,38.82
2019-06-07T09:01:03.668Z,39.23
2019-06-07T09:03:32.623Z,39.02
2019-06-07T09:06:53.440Z,39.61
2019-06-07T09:08:52.005Z,40.05
2019-06-07T09:11:52.435Z,40.75
2019-06-07T09:14:26.783Z,40.88
2019-06-07T09:17:07.971Z,41.46
2019-06-07T09:19:36.197Z,41.11
2019-06-07T09:22:11.286Z,41.02
2019-06-07T09:24:42.714Z,41.69
2019-06-07T09:27:15.516Z,41.57
2019-06-07T09:29:47.917Z,42.20
2019-06-07T09:32:20.276Z,42.47
2019-06-07T09:34:52.504Z,42.86
2019-06-07T09:40:19.616Z,43.87
2019-06-07T09:42:38.517Z,44.49
2019-06-07T09:45:13.871Z,43.93
2019-06-07T09:47:51.805Z,44.92
2019-06-07T09:50:23.984Z,44.98
2019-06-07T09:53:10.102Z,43.89
2019-06-07T09:55:34.836Z,43.71
2019-06-07T09:58:49.720Z,43.56
2019-06-07T10:00:47.869Z,43.22
2019-06-07T10:03:32.700Z,43.59
2019-06-07T10:06:11.052Z,42.07
2019-06-07T10:09:57.165Z,40.65
2019-06-07T10:11:17.924Z,41.70
2019-06-07T10:13:55.097Z,41.25
2019-06-07T10:16:27.458Z,41.48
2019-06-07T10:19:01.766Z,41.18
2019-06-07T10:21:37.299Z,42.03
2019-06-07T10:24:09.724Z,40.62
2019-06-07T10:26:42.099Z,41.45
2019-06-07T10:29:14.417Z,41.22
2019-06-07T10:31:49.427Z,41.28
2019-06-07T10:34:21.947Z,42.18
2019-06-07T10:36:56.003Z,41.77
2019-06-07T10:39:28.281Z,42.06
2019-06-07T10:42:03.906Z,41.44
2019-06-07T10:44:38.281Z,40.97
2019-06-07T10:47:12.133Z,40.05
2019-06-07T10:49:43.749Z,39.70
2019-06-07T10:52:15.729Z,37.16
2019-06-07T10:54:49.416Z,38.43
2019-06-07T10:57:21.898Z,36.49
2019-06-07T10:59:55.385Z,36.12
2019-06-07T11:02:28.951Z,33.31
2019-06-07T11:05:07.962Z,32.89
2019-06-07T11:07:40.476Z,34.17
2019-06-07T11:10:18.804Z,32.43
2019-06-07T11:12:47.067Z,34.31
2019-06-07T11:15:19.851Z,36.39
2019-06-07T11:17:52.084Z,35.17
2019-06-07T11:20:26.378Z,34.45
2019-06-07T11:23:00.908Z,35.15
2019-06-07T11:25:34.177Z,35.90
2019-06-07T11:28:08.369Z,36.21
2019-06-07T11:30:42.510Z,36.32
2019-06-07T11:33:16.505Z,34.96
2019-06-07T11:35:51.597Z,34.58
2019-06-07T11:38:23.594Z,35.29
2019-06-07T11:40:57.831Z,35.79
2019-06-07T11:43:29.892Z,37.64
2019-06-07T11:46:02.189Z,38.26
2019-06-07T11:48:36.168Z,38.74
2019-06-07T11:51:08.620Z,38.10
2019-06-07T11:53:44.286Z,37.73
2019-06-07T11:56:18.037Z,37.38
2019-06-07T11:58:50.352Z,34.60
2019-06-07T12:01:22.945Z,33.60
2019-06-07T12:03:58.765Z,31.03
2019-06-07T12:06:30.065Z,31.68
2019-06-07T12:09:02.498Z,34.74
2019-06-07T12:11:36.632Z,35.25
2019-06-07T12:14:08.845Z,36.19
2019-06-07T12:16:42.725Z,36.99
2019-06-07T12:19:16.018Z,36.58
2019-06-07T12:21:51.401Z,35.80
2019-06-07T12:24:24.819Z,35.28
2019-06-07T12:26:57.908Z,35.72
2019-06-07T12:29:30.166Z,35.43
2019-06-07T12:32:02.453Z,32.54
2019-06-07T12:34:34.615Z,34.43
2019-06-07T12:37:07.049Z,32.89
2019-06-07T12:39:39.194Z,30.29
2019-06-07T12:42:12.423Z,29.63
2019-06-07T12:44:45.396Z,28.67
2019-06-07T12:47:18.989Z,29.15
2019-06-07T12:49:51.112Z,27.64
2019-06-07T12:52:24.656Z,27.75
2019-06-07T12:54:56.872Z,28.10
2019-06-07T12:57:28.915Z,29.47
2019-06-07T13:00:01.152Z,30.91
2019-06-07T13:02:33.678Z,30.47
2019-06-07T13:05:07.877Z,29.14
2019-06-07T13:07:39.962Z,28.86
2019-06-07T13:10:12.650Z,28.00
2019-06-07T13:12:49.285Z,26.84
2019-06-07T13:15:26.087Z,26.37
2019-06-07T13:18:00.113Z,25.58
2019-06-07T13:20:32.511Z,26.28
2019-06-07T13:23:07.083Z,28.52
2019-06-07T13:25:46.839Z,29.73
2019-06-07T13:28:22.564Z,32.13
2019-06-07T13:30:56.383Z,34.07
2019-06-07T13:33:35.478Z,34.25
2019-06-07T13:36:03.129Z,35.02
2019-06-07T13:38:36.931Z,35.85
2019-06-07T13:41:09.100Z,36.81
2019-06-07T13:43:43.613Z,33.60
2019-06-07T13:46:27.140Z,32.24
2019-06-07T13:49:13.573Z,33.43
2019-06-07T13:51:54.306Z,33.40
2019-06-07T13:54:33.132Z,34.68
2019-06-07T13:57:11.256Z,35.70
2019-06-07T13:59:52.642Z,36.08
2019-06-07T14:02:45.633Z,36.93
2019-06-07T14:05:18.792Z,37.54
2019-06-07T14:07:51.057Z,41.67
2019-06-07T14:10:25.506Z,44.34
2019-06-07T14:12:57.844Z,46.10
2019-06-07T14:15:34.134Z,45.80
2019-06-07T14:18:03.045Z,46.86
2019-06-07T14:20:36.033Z,47.82
2019-06-07T14:23:09.088Z,47.91
2019-06-07T14:25:42.612Z,46.41
2019-06-07T14:28:15.421Z,46.97
2019-06-07T14:30:48.029Z,46.36
2019-06-07T14:33:23.476Z,45.88
2019-06-07T14:35:55.598Z,42.14
2019-06-07T14:38:31.249Z,42.14
2019-06-07T14:41:03.484Z,43.40
2019-06-07T14:43:37.987Z,44.27
2019-06-07T14:46:12.784Z,43.28
2019-06-07T14:48:45.798Z,47.23
2019-06-07T14:51:18.615Z,51.33
2019-06-07T14:53:50.894Z,59.06
2019-06-07T14:56:23.090Z,65.42
2019-06-07T14:58:55.448Z,67.00
2019-06-07T15:01:28.480Z,62.27
2019-06-07T15:04:01.182Z,60.83
2019-06-07T15:06:34.938Z,65.37
2019-06-07T15:09:07.867Z,64.41
2019-06-07T15:11:40.788Z,66.05
2019-06-07T15:14:16.627Z,70.39
2019-06-07T15:16:47.161Z,69.93
2019-06-07T15:19:19.249Z,69.77
2019-06-07T15:21:51.418Z,70.34
2019-06-07T15:24:24.243Z,75.08
2019-06-07T15:26:56.680Z,71.80
2019-06-07T15:29:29.873Z,70.52
2019-06-07T15:32:01.977Z,73.21
2019-06-07T15:34:34.362Z,71.23
2019-06-07T15:37:06.559Z,71.53
2019-06-07T15:39:39.761Z,71.96
2019-06-07T15:42:11.843Z,68.42
2019-06-07T15:44:45.270Z,68.96
2019-06-07T15:47:18.254Z,69.91
2019-06-07T15:49:50.925Z,70.55
2019-06-07T15:52:23.175Z,66.77
2019-06-07T15:54:55.596Z,64.79
2019-06-07T15:57:27.713Z,65.48
2019-06-07T15:59:59.854Z,65.91
2019-06-07T16:02:33.519Z,66.85
2019-06-07T16:05:06.993Z,67.39
2019-06-07T16:07:40.550Z,70.68
2019-06-07T16:10:16.285Z,73.01
2019-06-07T16:12:59.622Z,74.47
2019-06-07T16:15:22.934Z,72.27
2019-06-07T16:17:55.339Z,73.04
2019-06-07T16:20:27.963Z,73.32
2019-06-07T16:23:02.019Z,73.22
2019-06-07T16:25:35.808Z,71.96
2019-06-07T16:28:09.174Z,70.44
2019-06-07T16:30:42.666Z,69.43
2019-06-07T16:33:15.211Z,70.58
2019-06-07T16:35:47.305Z,71.73
2019-06-07T16:38:19.751Z,71.25
2019-06-07T16:40:51.849Z,70.60
2019-06-07T16:43:24.350Z,70.22
2019-06-07T16:45:56.490Z,69.16
2019-06-07T16:48:28.560Z,68.81
2019-06-07T16:51:00.673Z,68.46
2019-06-07T16:53:32.902Z,67.86
2019-06-07T16:56:05.738Z,67.18
2019-06-07T16:58:40.215Z,66.60
2019-06-07T17:01:12.546Z,65.85
2019-06-07T17:03:45.712Z,65.66
2019-06-07T17:06:18.320Z,65.56
2019-06-07T17:08:50.911Z,71.49
2019-06-07T17:11:23.499Z,70.71
2019-06-07T17:13:55.931Z,67.08
2019-06-07T17:16:29.434Z,67.85
2019-06-07T17:19:02.038Z,65.92
2019-06-07T17:21:34.238Z,66.58
2019-06-07T17:24:06.445Z,67.83
2019-06-07T17:26:39.391Z,69.34
2019-06-07T17:29:12.863Z,71.87
2019-06-07T17:31:46.416Z,72.45
2019-06-07T17:34:18.706Z,72.97
2019-06-07T17:36:51.120Z,73.31
2019-06-07T17:39:23.960Z,72.85
2019-06-07T17:42:02.185Z,72.58
2019-06-07T17:44:30.643Z,72.59
2019-06-07T17:47:03.276Z,72.86
2019-06-07T17:49:37.359Z,73.98
2019-06-07T17:52:08.904Z,74.77
2019-06-07T17:54:41.800Z,73.92
2019-06-07T17:57:14.232Z,74.06
2019-06-07T17:59:46.731Z,74.42
2019-06-07T18:02:19.087Z,74.80
2019-06-07T18:04:53.370Z,75.18
2019-06-07T18:07:27.375Z,75.15
2019-06-07T18:10:01.200Z,75.76
2019-06-07T18:12:33.579Z,75.85
2019-06-07T18:15:11.530Z,75.37
2019-06-07T18:17:44.565Z,74.96
2019-06-07T18:20:17.589Z,73.97
2019-06-07T18:22:51.187Z,73.67
2019-06-07T18:25:23.716Z,71.11
2019-06-07T18:27:55.973Z,71.90
2019-06-07T18:30:29.326Z,70.54
2019-06-07T18:33:01.742Z,71.48
2019-06-07T18:35:34.196Z,68.64
2019-06-07T18:38:10.775Z,69.94
2019-06-07T18:40:42.297Z,70.95
2019-06-07T18:43:14.376Z,71.56
2019-06-07T18:45:47.313Z,73.79
2019-06-07T18:48:20.524Z,75.17
2019-06-07T18:50:53.119Z,78.62
2019-06-07T18:53:25.574Z,80.08
2019-06-07T18:55:58.802Z,82.55
2019-06-07T18:58:31.639Z,82.99
2019-06-07T19:01:04.080Z,83.56
2019-06-07T19:03:36.426Z,82.86
2019-06-07T19:06:08.970Z,82.63
2019-06-07T19:08:42.997Z,83.45
2019-06-07T19:11:15.938Z,85.70
2019-06-07T19:13:48.895Z,86.13
2019-06-07T19:16:22.114Z,85.98
2019-06-07T19:18:55.882Z,85.31
2019-06-07T19:21:32.083Z,85.37
2019-06-07T19:24:02.450Z,86.34
2019-06-07T19:26:34.873Z,85.24
2019-06-07T19:29:07.576Z,85.64
2019-06-07T19:31:40.551Z,86.00
2019-06-07T19:34:13.302Z,85.81
2019-06-07T19:36:49.046Z,84.63
2019-06-07T19:39:20.265Z,84.14
2019-06-07T19:41:53.918Z,83.46
2019-06-07T19:44:26.331Z,81.98
2019-06-07T19:47:00.723Z,82.03
2019-06-07T19:49:33.117Z,80.91
2019-06-07T19:52:05.653Z,76.42
2019-06-07T19:54:39.150Z,73.51
2019-06-07T19:57:13.411Z,71.88
2019-06-07T19:59:49.052Z,70.59
2019-06-07T20:02:21.733Z,71.58
2019-06-07T20:04:57.309Z,71.92
2019-06-07T20:07:30.044Z,71.63
2019-06-07T20:10:03.036Z,71.77
2019-06-07T20:12:43.888Z,72.51
2019-06-07T20:15:35.190Z,71.78
2019-06-07T20:18:07.965Z,72.23
2019-06-07T20:20:40.592Z,72.51
2019-06-07T20:23:14.568Z,72.92
2019-06-07T20:25:49.333Z,74.11
2019-06-07T20:28:22.887Z,74.88
2019-06-07T20:30:57.648Z,75.97
2019-06-07T20:33:36.941Z,74.97
2019-06-07T20:36:09.263Z,74.24
2019-06-07T20:38:46.434Z,74.46
2019-06-07T20:41:19.314Z,73.95
2019-06-07T20:43:51.938Z,73.78
2019-06-07T20:46:25.655Z,72.41
2019-06-07T20:48:58.147Z,72.39
2019-06-07T20:51:32.365Z,72.19
2019-06-07T20:54:07.411Z,73.13
2019-06-07T20:56:39.874Z,73.37
2019-06-07T20:59:13.958Z,73.89
2019-06-07T21:01:45.494Z,72.76
2019-06-07T21:04:17.906Z,73.04
2019-06-07T21:06:50.291Z,72.95
2019-06-07T21:09:22.811Z,72.89
2019-06-07T21:11:57.209Z,72.41
2019-06-07T21:14:30.532Z,72.76
2019-06-07T21:17:04.097Z,72.57
2019-06-07T21:19:37.776Z,72.36
2019-06-07T21:22:11.216Z,71.61
2019-06-07T21:24:43.658Z,71.38
2019-06-07T21:27:16.071Z,72.59
2019-06-07T21:29:49.687Z,71.82
2019-06-07T21:32:22.337Z,70.99
2019-06-07T21:34:55.796Z,70.56
2019-06-07T21:37:29.658Z,70.36
2019-06-07T21:40:04.156Z,70.02
2019-06-07T21:42:36.919Z,70.54
2019-06-07T21:45:11.891Z,70.99
2019-06-07T21:47:44.434Z,71.75
2019-06-07T21:50:16.937Z,72.16
2019-06-07T21:52:49.163Z,73.00
2019-06-07T21:55:23.215Z,73.93
2019-06-07T21:57:57.590Z,74.71
2019-06-07T22:00:43.626Z,73.46
2019-06-07T22:03:17.482Z,73.57
2019-06-07T22:05:49.890Z,73.35
2019-06-07T22:08:23.007Z,73.34
2019-06-07T22:10:55.445Z,73.33
2019-06-07T22:13:28.426Z,72.22
2019-06-07T22:16:00.880Z,71.41
2019-06-07T22:18:33.789Z,70.98
2019-06-07T22:21:06.468Z,70.14
2019-06-07T22:23:38.651Z,69.42
2019-06-07T22:26:11.334Z,70.02
2019-06-07T22:28:44.124Z,69.57
2019-06-07T22:31:16.554Z,69.32
2019-06-07T22:33:48.879Z,68.61
2019-06-07T22:36:22.344Z,67.45
2019-06-07T22:38:54.534Z,67.77
2019-06-07T22:41:26.724Z,67.08
2019-06-07T22:43:58.982Z,67.70
2019-06-07T22:46:37.480Z,68.04
2019-06-07T22:49:04.666Z,67.81
2019-06-07T22:51:36.640Z,68.22
2019-06-07T22:54:09.560Z,68.88
2019-06-07T22:56:46.428Z,69.51
2019-06-07T22:59:20.450Z,70.05
2019-06-07T23:01:52.453Z,70.03
2019-06-07T23:04:24.836Z,70.57
2019-06-07T23:06:57.354Z,69.97
2019-06-07T23:09:30.544Z,68.71
2019-06-07T23:12:02.968Z,68.54
2019-06-07T23:14:35.136Z,68.23
2019-06-07T23:17:09.484Z,68.52
2019-06-07T23:19:42.031Z,68.38
2019-06-07T23:22:14.440Z,68.06
2019-06-07T23:24:46.601Z,68.38
2019-06-07T23:27:18.699Z,66.09
2019-06-07T23:29:50.858Z,66.36
2019-06-07T23:32:23.169Z,66.22
2019-06-07T23:34:55.283Z,67.75
2019-06-07T23:37:30.289Z,69.38
2019-06-07T23:40:02.514Z,68.75
2019-06-07T23:42:34.870Z,68.36
2019-06-07T23:45:08.237Z,68.80
2019-06-07T23:47:40.858Z,69.39
2019-06-07T23:50:13.728Z,70.26
2019-06-07T23:52:45.898Z,71.67
2019-06-07T23:55:18.352Z,71.86
2019-06-07T23:57:50.560Z,73.06
